createdAt,value
2018-01-16T01:39:11.023Z,6.56
2018-01-16T01:39:11.529Z,6.53
2018-01-16T01:39:12.129Z,6.53
2018-01-16T01:39:12.729Z,6.56
2018-01-16T01:39:13.338Z,6.53
2018-01-16T01:39:13.929Z,6.56
2018-01-16T01:39:14.527Z,6.56
2018-01-16T01:39:15.126Z,6.59
2018-01-16T01:40:09.590Z,6.53
2018-01-16T01:40:10.160Z,6.58
2018-01-16T01:40:10.757Z,6.58
2018-01-16T01:40:11.358Z,6.53
2018-01-16T01:40:11.956Z,6.62
2018-01-16T01:40:12.556Z,6.53
2018-01-16T01:40:13.158Z,6.61
2018-01-16T01:40:13.756Z,6.63
2018-01-16T01:41:08.264Z,6.51
2018-01-16T01:41:08.857Z,6.59
2018-01-16T01:41:09.437Z,6.61
2018-01-16T01:41:10.035Z,6.72
2018-01-16T01:41:10.630Z,6.62
2018-01-16T01:41:11.231Z,6.59
2018-01-16T01:41:11.830Z,6.61
2018-01-16T01:41:12.430Z,6.62
2018-01-16T01:42:05.917Z,6.58
2018-01-16T01:42:06.487Z,6.59
2018-01-16T01:42:07.085Z,6.62
2018-01-16T01:42:07.687Z,6.69
2018-01-16T01:42:08.286Z,6.68
2018-01-16T01:42:08.887Z,6.68
2018-01-16T01:42:09.485Z,6.63
2018-01-16T01:42:10.085Z,6.66
2018-01-16T01:43:03.572Z,6.65
2018-01-16T01:43:04.140Z,6.66
2018-01-16T01:43:04.739Z,6.62
2018-01-16T01:43:05.337Z,6.69
2018-01-16T01:43:05.936Z,6.71
2018-01-16T01:43:06.537Z,6.71
2018-01-16T01:43:07.138Z,6.63
2018-01-16T01:43:07.736Z,6.71
2018-01-16T01:44:02.244Z,6.63
2018-01-16T01:44:02.815Z,6.68
2018-01-16T01:44:03.413Z,6.72
2018-01-16T01:44:04.029Z,6.72
2018-01-16T01:44:04.614Z,6.68
2018-01-16T01:44:05.214Z,6.63
2018-01-16T01:44:05.814Z,6.66
2018-01-16T01:44:06.414Z,6.68
2018-01-16T01:45:00.001Z,6.69
2018-01-16T01:45:00.570Z,6.68
2018-01-16T01:45:01.168Z,6.72
2018-01-16T01:45:01.775Z,6.66
2018-01-16T01:45:02.371Z,6.66
2018-01-16T01:45:02.969Z,6.69
2018-01-16T01:45:03.568Z,6.66
2018-01-16T01:45:04.168Z,6.66
2018-01-16T01:45:58.162Z,6.71
2018-01-16T01:45:58.738Z,6.72
2018-01-16T01:45:59.332Z,6.63
2018-01-16T01:45:59.932Z,6.65
2018-01-16T01:46:00.532Z,6.69
2018-01-16T01:46:01.132Z,6.59
2018-01-16T01:46:01.733Z,6.59
2018-01-16T01:46:55.304Z,6.71
2018-01-16T01:46:55.872Z,6.71
2018-01-16T01:46:56.472Z,6.69
2018-01-16T01:46:57.072Z,6.72
2018-01-16T01:46:57.673Z,6.77
2018-01-16T01:46:58.273Z,6.79
2018-01-16T01:46:58.873Z,6.65
2018-01-16T01:46:59.471Z,6.61
2018-01-16T01:47:53.978Z,6.68
2018-01-16T01:47:54.548Z,6.66
2018-01-16T01:47:55.148Z,6.59
2018-01-16T01:47:55.748Z,6.66
2018-01-16T01:47:56.348Z,6.69
2018-01-16T01:47:56.952Z,6.69
2018-01-16T01:47:57.548Z,6.65
2018-01-16T01:47:58.147Z,6.65
2018-01-16T01:48:52.654Z,6.79
2018-01-16T01:48:53.224Z,6.71
2018-01-16T01:48:53.823Z,6.79
2018-01-16T01:48:54.422Z,6.71
2018-01-16T01:48:55.025Z,6.66
2018-01-16T01:48:55.623Z,6.66
2018-01-16T01:48:56.223Z,6.73
2018-01-16T01:48:56.822Z,6.68
2018-01-16T01:49:50.307Z,6.76
2018-01-16T01:49:50.881Z,6.69
2018-01-16T01:49:51.477Z,6.68
2018-01-16T01:49:52.075Z,6.69
2018-01-16T01:49:52.676Z,6.68
2018-01-16T01:49:53.275Z,6.72
2018-01-16T01:49:53.875Z,6.68
2018-01-16T01:49:54.476Z,6.68
2018-01-16T01:50:48.982Z,6.77
2018-01-16T01:50:49.551Z,6.71
2018-01-16T01:50:50.151Z,6.66
2018-01-16T01:50:50.751Z,6.72
2018-01-16T01:50:51.352Z,6.68
2018-01-16T01:50:51.951Z,6.72
2018-01-16T01:50:52.549Z,6.68
2018-01-16T01:50:53.151Z,6.71
2018-01-16T01:51:47.656Z,6.71
2018-01-16T01:51:48.228Z,6.69
2018-01-16T01:51:48.826Z,6.68
2018-01-16T01:51:49.426Z,6.72
2018-01-16T01:51:50.028Z,6.71
2018-01-16T01:51:50.626Z,6.72
2018-01-16T01:51:51.227Z,6.73
2018-01-16T01:51:51.827Z,6.79
2018-01-16T01:52:46.339Z,6.72
2018-01-16T01:52:46.904Z,6.66
2018-01-16T01:52:47.503Z,6.68
2018-01-16T01:52:48.104Z,6.66
2018-01-16T01:52:48.702Z,6.66
2018-01-16T01:52:49.302Z,6.73
2018-01-16T01:52:49.903Z,6.66
2018-01-16T01:52:50.502Z,6.79
2018-01-16T01:53:43.989Z,6.66
2018-01-16T01:53:44.554Z,6.66
2018-01-16T01:53:45.155Z,6.73
2018-01-16T01:53:45.756Z,6.71
2018-01-16T01:53:46.353Z,6.68
2018-01-16T01:53:46.954Z,6.73
2018-01-16T01:53:47.553Z,6.77
2018-01-16T01:53:48.193Z,6.73
2018-01-16T01:54:42.661Z,6.66
2018-01-16T01:54:43.230Z,6.73
2018-01-16T01:54:43.831Z,6.72
2018-01-16T01:54:44.430Z,6.73
2018-01-16T01:54:45.030Z,6.69
2018-01-16T01:54:45.629Z,6.81
2018-01-16T01:54:46.231Z,6.77
2018-01-16T01:54:46.829Z,6.79
2018-01-16T01:55:40.314Z,6.68
2018-01-16T01:55:40.883Z,6.71
2018-01-16T01:55:41.485Z,6.71
2018-01-16T01:55:42.083Z,6.72
2018-01-16T01:55:42.682Z,6.79
2018-01-16T01:55:43.282Z,6.73
2018-01-16T01:55:43.882Z,6.71
2018-01-16T01:55:44.481Z,6.80
2018-01-16T01:56:38.986Z,6.69
2018-01-16T01:56:39.559Z,6.77
2018-01-16T01:56:40.159Z,6.76
2018-01-16T01:56:40.757Z,6.73
2018-01-16T01:56:41.357Z,6.77
2018-01-16T01:56:41.957Z,6.77
2018-01-16T01:56:42.556Z,6.73
2018-01-16T01:56:43.157Z,6.72
2018-01-16T01:57:36.643Z,6.79
2018-01-16T01:57:37.210Z,6.79
2018-01-16T01:57:37.813Z,6.72
2018-01-16T01:57:38.414Z,6.69
2018-01-16T01:57:39.013Z,6.72
2018-01-16T01:57:39.609Z,6.79
2018-01-16T01:57:40.208Z,6.73
2018-01-16T01:57:40.810Z,6.80
2018-01-16T01:58:34.292Z,6.76
2018-01-16T01:58:34.862Z,6.76
2018-01-16T01:58:35.465Z,6.79
2018-01-16T01:58:36.062Z,6.73
2018-01-16T01:58:36.662Z,6.77
2018-01-16T01:58:37.263Z,6.69
2018-01-16T01:58:37.862Z,6.73
2018-01-16T01:58:38.465Z,6.73
2018-01-16T01:59:31.943Z,6.71
2018-01-16T01:59:32.514Z,6.69
2018-01-16T01:59:33.114Z,6.69
2018-01-16T01:59:33.712Z,6.76
2018-01-16T01:59:34.313Z,6.69
2018-01-16T01:59:34.913Z,6.69
2018-01-16T01:59:35.512Z,6.73
2018-01-16T01:59:36.112Z,6.71
2018-01-16T02:00:30.619Z,6.79
2018-01-16T02:00:31.190Z,6.72
2018-01-16T02:00:31.787Z,6.81
2018-01-16T02:00:32.389Z,6.72
2018-01-16T02:00:32.994Z,6.73
2018-01-16T02:00:33.588Z,6.77
2018-01-16T02:00:34.188Z,6.72
2018-01-16T02:00:34.790Z,6.77
2018-01-16T02:01:28.272Z,6.72
2018-01-16T02:01:28.842Z,6.72
2018-01-16T02:01:29.441Z,6.69
2018-01-16T02:01:30.041Z,6.71
2018-01-16T02:01:30.640Z,6.66
2018-01-16T02:01:31.241Z,6.66
2018-01-16T02:01:31.841Z,6.73
2018-01-16T02:01:32.445Z,6.73
2018-01-16T02:02:26.944Z,6.69
2018-01-16T02:02:27.517Z,6.77
2018-01-16T02:02:28.117Z,6.71
2018-01-16T02:02:28.714Z,6.77
2018-01-16T02:02:29.316Z,6.72
2018-01-16T02:02:29.914Z,6.76
2018-01-16T02:02:30.514Z,6.76
2018-01-16T02:02:31.116Z,6.69
2018-01-16T02:03:24.703Z,6.72
2018-01-16T02:03:25.271Z,6.73
2018-01-16T02:03:25.871Z,6.76
2018-01-16T02:03:26.471Z,6.76
2018-01-16T02:03:27.070Z,6.76
2018-01-16T02:03:27.670Z,6.73
2018-01-16T02:03:28.270Z,6.72
2018-01-16T02:03:28.871Z,6.73
2018-01-16T02:04:22.353Z,6.69
2018-01-16T02:04:22.932Z,6.66
2018-01-16T02:04:23.521Z,6.73
2018-01-16T02:04:24.127Z,6.71
2018-01-16T02:04:24.721Z,6.66
2018-01-16T02:04:25.320Z,6.68
2018-01-16T02:04:25.923Z,6.71
2018-01-16T02:04:26.522Z,6.76
2018-01-16T02:05:21.026Z,6.71
2018-01-16T02:05:21.601Z,6.69
2018-01-16T02:05:22.199Z,6.69
2018-01-16T02:05:22.797Z,6.73
2018-01-16T02:05:23.396Z,6.66
2018-01-16T02:05:23.997Z,6.72
2018-01-16T02:05:24.596Z,6.69
2018-01-16T02:05:25.198Z,6.73
2018-01-16T02:06:19.708Z,6.68
2018-01-16T02:06:20.272Z,6.76
2018-01-16T02:06:20.875Z,6.80
2018-01-16T02:06:21.473Z,6.76
2018-01-16T02:06:22.071Z,6.79
2018-01-16T02:06:22.672Z,6.72
2018-01-16T02:06:23.271Z,6.65
2018-01-16T02:06:23.872Z,6.61
2018-01-16T02:07:18.383Z,6.63
2018-01-16T02:07:18.955Z,6.63
2018-01-16T02:07:19.549Z,6.63
2018-01-16T02:07:20.149Z,6.71
2018-01-16T02:07:20.749Z,6.66
2018-01-16T02:07:21.349Z,6.69
2018-01-16T02:07:21.948Z,6.69
2018-01-16T02:07:22.548Z,6.71
2018-01-16T02:08:17.060Z,6.68
2018-01-16T02:08:17.624Z,6.65
2018-01-16T02:08:18.227Z,6.61
2018-01-16T02:08:18.824Z,6.72
2018-01-16T02:08:19.423Z,6.68
2018-01-16T02:08:20.023Z,6.65
2018-01-16T02:08:20.624Z,6.66
2018-01-16T02:08:21.223Z,6.66
2018-01-16T02:09:14.713Z,6.66
2018-01-16T02:09:15.278Z,6.58
2018-01-16T02:09:15.877Z,6.62
2018-01-16T02:09:16.479Z,6.63
2018-01-16T02:09:17.077Z,6.65
2018-01-16T02:09:17.679Z,6.61
2018-01-16T02:09:18.275Z,6.62
2018-01-16T02:09:18.874Z,6.66
2018-01-16T02:10:12.358Z,6.66
2018-01-16T02:10:12.931Z,6.68
2018-01-16T02:10:13.530Z,6.69
2018-01-16T02:10:14.127Z,6.58
2018-01-16T02:10:14.728Z,6.68
2018-01-16T02:10:15.331Z,6.66
2018-01-16T02:10:15.926Z,6.71
2018-01-16T02:10:16.528Z,6.68
2018-01-16T02:11:11.035Z,6.59
2018-01-16T02:11:11.604Z,6.71
2018-01-16T02:11:12.204Z,6.65
2018-01-16T02:11:12.804Z,6.71
2018-01-16T02:11:13.414Z,6.59
2018-01-16T02:11:14.004Z,6.71
2018-01-16T02:11:14.602Z,6.68
2018-01-16T02:11:15.203Z,6.59
2018-01-16T02:12:09.710Z,6.69
2018-01-16T02:12:10.279Z,6.62
2018-01-16T02:12:10.879Z,6.59
2018-01-16T02:12:11.479Z,6.66
2018-01-16T02:12:12.079Z,6.59
2018-01-16T02:12:12.679Z,6.69
2018-01-16T02:12:13.277Z,6.71
2018-01-16T02:12:13.877Z,6.61
2018-01-16T02:13:07.362Z,6.59
2018-01-16T02:13:07.931Z,6.63
2018-01-16T02:13:08.530Z,6.69
2018-01-16T02:13:09.131Z,6.69
2018-01-16T02:13:09.731Z,6.62
2018-01-16T02:13:10.331Z,6.72
2018-01-16T02:13:10.930Z,6.69
2018-01-16T02:13:11.532Z,6.68
2018-01-16T02:14:05.116Z,6.68
2018-01-16T02:14:05.686Z,6.62
2018-01-16T02:14:06.286Z,6.58
2018-01-16T02:14:06.885Z,6.58
2018-01-16T02:14:07.484Z,6.69
2018-01-16T02:14:08.086Z,6.69
2018-01-16T02:14:08.687Z,6.65
2018-01-16T02:14:09.287Z,6.72
2018-01-16T02:15:04.303Z,6.65
2018-01-16T02:15:04.875Z,6.63
2018-01-16T02:15:05.472Z,6.65
2018-01-16T02:15:06.071Z,6.58
2018-01-16T02:15:06.672Z,6.59
2018-01-16T02:15:07.272Z,6.63
2018-01-16T02:15:07.871Z,6.69
2018-01-16T02:16:01.444Z,6.58
2018-01-16T02:16:02.014Z,6.63
2018-01-16T02:16:02.620Z,6.62
2018-01-16T02:16:03.214Z,6.65
2018-01-16T02:16:03.813Z,6.66
2018-01-16T02:16:04.412Z,6.68
2018-01-16T02:16:05.012Z,6.66
2018-01-16T02:16:05.612Z,6.69
2018-01-16T02:17:00.117Z,6.61
2018-01-16T02:17:00.688Z,6.63
2018-01-16T02:17:01.288Z,6.65
2018-01-16T02:17:01.887Z,6.68
2018-01-16T02:17:02.487Z,6.69
2018-01-16T02:17:03.089Z,6.66
2018-01-16T02:17:03.692Z,6.68
2018-01-16T02:17:04.286Z,6.73
2018-01-16T02:17:58.795Z,6.63
2018-01-16T02:17:59.363Z,6.66
2018-01-16T02:17:59.962Z,6.68
2018-01-16T02:18:00.563Z,6.68
2018-01-16T02:18:01.166Z,6.71
2018-01-16T02:18:01.764Z,6.63
2018-01-16T02:18:02.368Z,6.65
2018-01-16T02:18:02.961Z,6.61
2018-01-16T02:19:25.630Z,6.63
2018-01-16T02:19:26.201Z,6.65
2018-01-16T02:19:26.799Z,6.63
2018-01-16T02:19:27.398Z,6.68
2018-01-16T02:19:28.000Z,6.66
2018-01-16T02:19:28.599Z,6.72
2018-01-16T02:19:29.199Z,6.66
2018-01-16T02:19:29.799Z,6.66
2018-01-16T02:19:30.397Z,6.69
2018-01-16T02:19:30.999Z,6.63
2018-01-16T02:20:26.044Z,6.65
2018-01-16T02:20:26.616Z,6.69
2018-01-16T02:20:27.215Z,6.66
2018-01-16T02:20:27.815Z,6.63
2018-01-16T02:20:28.425Z,6.66
2018-01-16T02:20:29.015Z,6.72
2018-01-16T02:20:29.620Z,6.72
2018-01-16T02:20:30.218Z,6.71
2018-01-16T02:21:23.704Z,6.76
2018-01-16T02:21:24.268Z,6.69
2018-01-16T02:21:24.867Z,6.77
2018-01-16T02:21:25.468Z,6.76
2018-01-16T02:21:26.067Z,6.68
2018-01-16T02:21:26.667Z,6.63
2018-01-16T02:21:27.268Z,6.69
2018-01-16T02:21:27.866Z,6.72
2018-01-16T02:22:21.350Z,6.63
2018-01-16T02:22:21.919Z,6.68
2018-01-16T02:22:22.524Z,6.76
2018-01-16T02:22:23.121Z,6.72
2018-01-16T02:22:23.716Z,6.76
2018-01-16T02:22:24.317Z,6.72
2018-01-16T02:22:24.918Z,6.66
2018-01-16T02:22:25.516Z,6.72
2018-01-16T02:23:19.520Z,6.72
2018-01-16T02:23:20.088Z,6.72
2018-01-16T02:23:20.682Z,6.73
2018-01-16T02:23:21.282Z,6.79
2018-01-16T02:23:21.881Z,6.77
2018-01-16T02:23:22.482Z,6.79
2018-01-16T02:23:23.081Z,6.79
2018-01-16T02:24:16.657Z,6.68
2018-01-16T02:24:17.224Z,6.77
2018-01-16T02:24:17.822Z,6.72
2018-01-16T02:24:18.434Z,6.69
2018-01-16T02:24:19.023Z,6.77
2018-01-16T02:24:19.623Z,6.72
2018-01-16T02:24:20.223Z,6.76
2018-01-16T02:24:20.823Z,6.69
2018-01-16T02:25:15.327Z,6.76
2018-01-16T02:25:15.898Z,6.71
2018-01-16T02:25:16.498Z,6.69
2018-01-16T02:25:17.097Z,6.79
2018-01-16T02:25:17.699Z,6.66
2018-01-16T02:25:18.299Z,6.72
2018-01-16T02:25:18.898Z,6.72
2018-01-16T02:25:19.497Z,6.72
2018-01-16T02:26:14.002Z,6.73
2018-01-16T02:26:14.574Z,6.86
2018-01-16T02:26:15.173Z,6.86
2018-01-16T02:26:15.776Z,6.89
2018-01-16T02:26:16.375Z,6.87
2018-01-16T02:26:16.974Z,6.68
2018-01-16T02:26:17.572Z,6.77
2018-01-16T02:26:18.172Z,6.84
2018-01-16T02:27:12.680Z,6.77
2018-01-16T02:27:13.249Z,6.89
2018-01-16T02:27:13.849Z,6.84
2018-01-16T02:27:14.450Z,6.91
2018-01-16T02:27:15.049Z,6.90
2018-01-16T02:27:15.651Z,6.86
2018-01-16T02:27:16.247Z,6.90
2018-01-16T02:27:16.847Z,6.86
2018-01-16T02:28:10.330Z,6.87
2018-01-16T02:28:10.902Z,6.89
2018-01-16T02:28:11.501Z,6.87
2018-01-16T02:28:12.101Z,6.95
2018-01-16T02:28:12.700Z,6.84
2018-01-16T02:28:13.302Z,6.89
2018-01-16T02:28:13.901Z,6.86
2018-01-16T02:28:14.502Z,6.91
2018-01-16T02:29:07.984Z,6.80
2018-01-16T02:29:08.553Z,6.86
2018-01-16T02:29:09.154Z,6.84
2018-01-16T02:29:09.752Z,6.89
2018-01-16T02:29:10.354Z,6.89
2018-01-16T02:29:10.953Z,6.94
2018-01-16T02:29:11.553Z,6.95
2018-01-16T02:29:12.154Z,6.89
2018-01-16T02:30:05.637Z,6.91
2018-01-16T02:30:06.208Z,6.94
2018-01-16T02:30:06.805Z,6.87
2018-01-16T02:30:07.408Z,6.87
2018-01-16T02:30:08.011Z,6.89
2018-01-16T02:30:08.605Z,6.86
2018-01-16T02:30:09.204Z,6.89
2018-01-16T02:30:09.810Z,6.87
2018-01-16T02:31:04.310Z,6.91
2018-01-16T02:31:04.883Z,6.84
2018-01-16T02:31:05.480Z,6.86
2018-01-16T02:31:06.080Z,6.91
2018-01-16T02:31:06.682Z,6.86
2018-01-16T02:31:07.291Z,6.86
2018-01-16T02:31:07.879Z,6.87
2018-01-16T02:31:08.478Z,6.89
2018-01-16T02:32:03.503Z,6.84
2018-01-16T02:32:04.069Z,6.86
2018-01-16T02:32:04.667Z,6.86
2018-01-16T02:32:05.269Z,6.83
2018-01-16T02:32:05.867Z,6.90
2018-01-16T02:32:06.470Z,6.83
2018-01-16T02:32:07.068Z,6.90
2018-01-16T02:33:00.639Z,6.89
2018-01-16T02:33:01.209Z,6.84
2018-01-16T02:33:01.807Z,6.91
2018-01-16T02:33:02.407Z,6.80
2018-01-16T02:33:03.006Z,6.86
2018-01-16T02:33:03.608Z,6.84
2018-01-16T02:33:04.208Z,6.86
2018-01-16T02:33:04.810Z,6.83
2018-01-16T02:33:59.315Z,6.84
2018-01-16T02:33:59.884Z,6.71
2018-01-16T02:34:00.482Z,6.77
2018-01-16T02:34:01.084Z,6.87
2018-01-16T02:34:01.683Z,6.72
2018-01-16T02:34:02.283Z,6.77
2018-01-16T02:34:02.881Z,6.77
2018-01-16T02:34:03.480Z,6.84
2018-01-16T02:52:14.900Z,6.40
2018-01-16T02:52:15.465Z,6.50
2018-01-16T02:52:16.065Z,6.40
2018-01-16T02:52:16.664Z,6.35
2018-01-16T02:52:17.263Z,6.33
2018-01-16T02:52:17.863Z,6.38
2018-01-16T02:52:18.465Z,6.35
2018-01-16T02:52:19.066Z,6.36
2018-01-16T02:53:12.548Z,6.36
2018-01-16T02:53:13.118Z,6.36
2018-01-16T02:53:13.717Z,6.36
2018-01-16T02:53:14.338Z,6.38
2018-01-16T02:53:14.914Z,6.40
2018-01-16T02:53:15.518Z,6.41
2018-01-16T02:53:16.118Z,6.38
2018-01-16T02:53:16.716Z,6.47
2018-01-16T02:54:11.224Z,6.32
2018-01-16T02:54:11.795Z,6.47
2018-01-16T02:54:12.397Z,6.40
2018-01-16T02:54:12.992Z,6.41
2018-01-16T02:54:13.592Z,6.36
2018-01-16T02:54:14.191Z,6.36
2018-01-16T02:54:14.791Z,6.33
2018-01-16T02:54:15.392Z,6.40
2018-01-16T02:55:08.875Z,6.35
2018-01-16T02:55:09.447Z,6.36
2018-01-16T02:55:10.045Z,6.32
2018-01-16T02:55:10.644Z,6.44
2018-01-16T02:55:11.245Z,6.47
2018-01-16T02:55:11.845Z,6.38
2018-01-16T02:55:12.445Z,6.38
2018-01-16T02:55:13.044Z,6.43
2018-01-16T02:56:06.528Z,6.40
2018-01-16T02:56:07.098Z,6.32
2018-01-16T02:56:07.697Z,6.36
2018-01-16T02:56:08.297Z,6.40
2018-01-16T02:56:08.896Z,6.47
2018-01-16T02:56:09.498Z,6.44
2018-01-16T02:56:10.097Z,6.47
2018-01-16T02:56:10.696Z,6.36
2018-01-16T02:57:05.202Z,6.35
2018-01-16T02:57:05.772Z,6.36
2018-01-16T02:57:06.371Z,6.30
2018-01-16T02:57:06.972Z,6.35
2018-01-16T02:57:07.573Z,6.28
2018-01-16T02:57:08.172Z,6.30
2018-01-16T02:57:08.771Z,6.36
2018-01-16T02:57:09.371Z,6.44
2018-01-16T02:58:03.879Z,6.28
2018-01-16T02:58:04.449Z,6.29
2018-01-16T02:58:05.048Z,6.30
2018-01-16T02:58:05.648Z,6.35
2018-01-16T02:58:06.247Z,6.32
2018-01-16T02:58:06.849Z,6.36
2018-01-16T02:58:07.447Z,6.32
2018-01-16T02:58:08.048Z,6.35
2018-01-16T02:59:01.531Z,6.32
2018-01-16T02:59:02.101Z,6.33
2018-01-16T02:59:02.701Z,6.29
2018-01-16T02:59:03.303Z,6.33
2018-01-16T02:59:03.904Z,6.29
2018-01-16T02:59:04.501Z,6.30
2018-01-16T02:59:05.101Z,6.30
2018-01-16T02:59:05.701Z,6.32
2018-01-16T03:00:00.209Z,6.35
2018-01-16T03:00:00.781Z,6.28
2018-01-16T03:00:01.379Z,6.30
2018-01-16T03:00:01.977Z,6.36
2018-01-16T03:00:02.586Z,6.33
2018-01-16T03:00:03.179Z,6.41
2018-01-16T03:00:03.778Z,6.35
2018-01-16T03:00:04.377Z,6.33
2018-01-16T03:00:58.882Z,6.32
2018-01-16T03:00:59.455Z,6.32
2018-01-16T03:01:00.052Z,6.30
2018-01-16T03:01:00.650Z,6.33
2018-01-16T03:01:01.252Z,6.33
2018-01-16T03:01:01.852Z,6.32
2018-01-16T03:01:02.451Z,6.41
2018-01-16T03:01:03.050Z,6.41
2018-01-16T03:01:56.534Z,6.32
2018-01-16T03:01:57.106Z,6.33
2018-01-16T03:01:57.703Z,6.35
2018-01-16T03:01:58.304Z,6.33
2018-01-16T03:01:58.904Z,6.35
2018-01-16T03:01:59.503Z,6.40
2018-01-16T03:02:00.104Z,6.33
2018-01-16T03:02:00.704Z,6.44
2018-01-16T03:02:54.187Z,6.32
2018-01-16T03:02:54.756Z,6.40
2018-01-16T03:02:55.359Z,6.40
2018-01-16T03:02:55.955Z,6.40
2018-01-16T03:02:56.558Z,6.32
2018-01-16T03:02:57.156Z,6.33
2018-01-16T03:02:57.756Z,6.44
2018-01-16T03:02:58.354Z,6.47
2018-01-16T03:03:52.860Z,6.46
2018-01-16T03:03:53.432Z,6.33
2018-01-16T03:03:54.031Z,6.38
2018-01-16T03:03:54.633Z,6.46
2018-01-16T03:03:55.235Z,6.38
2018-01-16T03:03:55.831Z,6.47
2018-01-16T03:03:56.430Z,6.40
2018-01-16T03:03:57.031Z,6.33
2018-01-16T03:04:50.518Z,6.35
2018-01-16T03:04:51.085Z,6.35
2018-01-16T03:04:51.686Z,6.40
2018-01-16T03:04:52.283Z,6.41
2018-01-16T03:04:52.882Z,6.36
2018-01-16T03:04:53.484Z,6.40
2018-01-16T03:04:54.083Z,6.40
2018-01-16T03:04:54.685Z,6.41
2018-01-16T03:05:49.209Z,6.38
2018-01-16T03:05:49.759Z,6.40
2018-01-16T03:05:50.360Z,6.47
2018-01-16T03:05:50.958Z,6.44
2018-01-16T03:05:51.559Z,6.46
2018-01-16T03:05:52.158Z,6.43
2018-01-16T03:05:52.758Z,6.44
2018-01-16T03:05:53.358Z,6.44
2018-01-16T03:06:49.532Z,6.44
2018-01-16T03:06:50.030Z,6.47
2018-01-16T03:06:50.610Z,6.48
2018-01-16T03:06:51.213Z,6.44
2018-01-16T03:06:51.773Z,6.48
2018-01-16T03:06:52.435Z,6.46
2018-01-16T03:07:46.543Z,6.47
2018-01-16T03:07:47.113Z,6.46
2018-01-16T03:07:47.712Z,6.47
2018-01-16T03:07:48.311Z,6.46
2018-01-16T03:07:48.911Z,6.47
2018-01-16T03:07:49.510Z,6.47
2018-01-16T03:07:50.111Z,6.47
2018-01-16T03:07:50.709Z,6.44
2018-01-16T03:08:44.194Z,6.47
2018-01-16T03:08:44.762Z,6.50
2018-01-16T03:08:45.362Z,6.46
2018-01-16T03:08:45.962Z,6.53
2018-01-16T03:08:46.564Z,6.44
2018-01-16T03:08:47.161Z,6.46
2018-01-16T03:08:47.760Z,6.38
2018-01-16T03:08:48.360Z,6.50
2018-01-16T03:09:42.869Z,6.43
2018-01-16T03:09:43.438Z,6.47
2018-01-16T03:09:44.038Z,6.56
2018-01-16T03:09:44.638Z,6.56
2018-01-16T03:09:45.238Z,6.51
2018-01-16T03:09:45.838Z,6.47
2018-01-16T03:09:46.438Z,6.47
2018-01-16T03:09:47.037Z,6.51
2018-01-16T03:10:40.519Z,6.43
2018-01-16T03:10:41.090Z,6.48
2018-01-16T03:10:41.693Z,6.56
2018-01-16T03:10:42.290Z,6.51
2018-01-16T03:10:42.889Z,6.53
2018-01-16T03:10:43.496Z,6.47
2018-01-16T03:10:44.090Z,6.54
2018-01-16T03:10:44.689Z,6.47
2018-01-16T03:11:38.173Z,6.46
2018-01-16T03:11:38.741Z,6.53
2018-01-16T03:11:39.343Z,6.53
2018-01-16T03:11:39.941Z,6.53
2018-01-16T03:11:40.542Z,6.50
2018-01-16T03:11:41.140Z,6.59
2018-01-16T03:11:41.740Z,6.56
2018-01-16T03:11:42.343Z,6.51
2018-01-16T03:12:36.847Z,6.43
2018-01-16T03:12:37.415Z,6.58
2018-01-16T03:12:38.018Z,6.50
2018-01-16T03:12:38.617Z,6.61
2018-01-16T03:12:39.216Z,6.53
2018-01-16T03:12:39.815Z,6.47
2018-01-16T03:12:40.416Z,6.51
2018-01-16T03:12:41.015Z,6.56
2018-01-16T03:13:47.198Z,6.48
2018-01-16T03:13:47.770Z,6.54
2018-01-16T03:13:48.370Z,6.41
2018-01-16T03:13:48.968Z,6.53
2018-01-16T03:13:49.571Z,6.51
2018-01-16T03:13:50.165Z,6.48
2018-01-16T03:13:50.764Z,6.53
2018-01-16T03:13:51.363Z,6.46
2018-01-16T03:14:44.858Z,6.44
2018-01-16T03:14:45.419Z,6.54
2018-01-16T03:14:46.018Z,6.41
2018-01-16T03:14:46.616Z,6.46
2018-01-16T03:14:47.218Z,6.44
2018-01-16T03:14:47.817Z,6.47
2018-01-16T03:14:48.418Z,6.47
2018-01-16T03:14:49.028Z,6.51
2018-01-16T03:15:42.499Z,6.38
2018-01-16T03:15:43.070Z,6.40
2018-01-16T03:15:43.669Z,6.40
2018-01-16T03:15:44.269Z,6.44
2018-01-16T03:15:44.869Z,6.40
2018-01-16T03:15:45.469Z,6.35
2018-01-16T03:15:46.069Z,6.51
2018-01-16T03:15:46.671Z,6.36
2018-01-16T03:16:40.153Z,6.40
2018-01-16T03:16:40.724Z,6.41
2018-01-16T03:16:41.322Z,6.43
2018-01-16T03:16:41.922Z,6.38
2018-01-16T03:16:42.522Z,6.36
2018-01-16T03:16:43.122Z,6.40
2018-01-16T03:16:43.722Z,6.41
2018-01-16T03:16:44.321Z,6.38
2018-01-16T03:17:38.826Z,6.47
2018-01-16T03:17:39.397Z,6.47
2018-01-16T03:17:39.996Z,6.41
2018-01-16T03:17:40.598Z,6.40
2018-01-16T03:17:41.197Z,6.35
2018-01-16T03:17:41.796Z,6.40
2018-01-16T03:17:42.396Z,6.47
2018-01-16T03:17:42.996Z,6.35
2018-01-16T03:18:36.477Z,6.32
2018-01-16T03:18:37.049Z,6.38
2018-01-16T03:18:37.649Z,6.43
2018-01-16T03:18:38.250Z,6.40
2018-01-16T03:18:38.849Z,6.32
2018-01-16T03:18:39.448Z,6.32
2018-01-16T03:18:40.048Z,6.36
2018-01-16T03:18:40.649Z,6.36
2018-01-16T03:19:34.131Z,6.32
2018-01-16T03:19:34.700Z,6.30
2018-01-16T03:19:35.301Z,6.28
2018-01-16T03:19:35.903Z,6.30
2018-01-16T03:19:36.500Z,6.32
2018-01-16T03:19:37.099Z,6.33
2018-01-16T03:19:37.701Z,6.32
2018-01-16T03:19:38.299Z,6.35
2018-01-16T03:20:31.782Z,6.35
2018-01-16T03:20:32.351Z,6.36
2018-01-16T03:20:32.952Z,6.22
2018-01-16T03:20:33.556Z,6.32
2018-01-16T03:20:34.152Z,6.28
2018-01-16T03:20:34.751Z,6.21
2018-01-16T03:20:35.351Z,6.29
2018-01-16T03:20:35.950Z,6.19
2018-01-16T03:21:29.432Z,6.32
2018-01-16T03:21:30.007Z,6.16
2018-01-16T03:21:30.602Z,6.14
2018-01-16T03:21:31.202Z,6.32
2018-01-16T03:21:31.802Z,6.32
2018-01-16T03:21:32.402Z,6.30
2018-01-16T03:21:33.002Z,6.30
2018-01-16T03:21:33.602Z,6.30
2018-01-16T03:22:27.088Z,6.19
2018-01-16T03:22:27.655Z,6.26
2018-01-16T03:22:28.255Z,6.28
2018-01-16T03:22:28.857Z,6.22
2018-01-16T03:22:29.455Z,6.25
2018-01-16T03:22:30.055Z,6.26
2018-01-16T03:22:30.655Z,6.30
2018-01-16T03:22:31.256Z,6.33
2018-01-16T03:23:24.739Z,6.28
2018-01-16T03:23:25.308Z,6.19
2018-01-16T03:23:25.907Z,6.22
2018-01-16T03:23:26.507Z,6.28
2018-01-16T03:23:27.107Z,6.26
2018-01-16T03:23:27.707Z,6.21
2018-01-16T03:23:28.307Z,6.19
2018-01-16T03:23:28.909Z,6.19
2018-01-16T03:24:22.389Z,6.22
2018-01-16T03:24:22.960Z,6.26
2018-01-16T03:24:23.560Z,6.19
2018-01-16T03:24:24.159Z,6.22
2018-01-16T03:24:24.759Z,6.18
2018-01-16T03:24:25.358Z,6.21
2018-01-16T03:24:25.960Z,6.19
2018-01-16T03:24:26.557Z,6.19
2018-01-16T03:25:21.133Z,6.22
2018-01-16T03:25:21.640Z,6.22
2018-01-16T03:25:22.240Z,6.26
2018-01-16T03:25:22.840Z,6.25
2018-01-16T03:25:23.443Z,6.25
2018-01-16T03:25:24.038Z,6.26
2018-01-16T03:25:24.639Z,6.19
2018-01-16T03:25:25.238Z,6.18
2018-01-16T03:26:19.739Z,6.22
2018-01-16T03:26:20.311Z,6.18
2018-01-16T03:26:20.910Z,6.26
2018-01-16T03:26:21.510Z,6.18
2018-01-16T03:26:22.110Z,6.25
2018-01-16T03:26:22.710Z,6.30
2018-01-16T03:26:23.309Z,6.32
2018-01-16T03:26:23.908Z,6.32
2018-01-16T03:27:17.393Z,6.33
2018-01-16T03:27:17.964Z,6.33
2018-01-16T03:27:18.564Z,6.32
2018-01-16T03:27:19.162Z,6.21
2018-01-16T03:27:19.762Z,6.29
2018-01-16T03:27:20.362Z,6.25
2018-01-16T03:27:20.961Z,6.22
2018-01-16T03:27:21.562Z,6.29
2018-01-16T03:28:15.148Z,6.22
2018-01-16T03:28:15.717Z,6.32
2018-01-16T03:28:16.315Z,6.32
2018-01-16T03:28:16.917Z,6.28
2018-01-16T03:28:17.516Z,6.18
2018-01-16T03:28:18.117Z,6.35
2018-01-16T03:28:18.715Z,6.28
2018-01-16T03:28:19.316Z,6.29
2018-01-16T03:29:12.799Z,6.28
2018-01-16T03:29:13.368Z,6.29
2018-01-16T03:29:13.967Z,6.33
2018-01-16T03:29:14.567Z,6.32
2018-01-16T03:29:15.167Z,6.30
2018-01-16T03:29:15.768Z,6.32
2018-01-16T03:29:16.368Z,6.32
2018-01-16T03:29:16.967Z,6.35
2018-01-16T03:30:10.451Z,6.28
2018-01-16T03:30:11.022Z,6.33
2018-01-16T03:30:11.621Z,6.33
2018-01-16T03:30:12.220Z,6.35
2018-01-16T03:30:12.819Z,6.35
2018-01-16T03:30:13.422Z,6.33
2018-01-16T03:30:14.021Z,6.26
2018-01-16T03:30:14.619Z,6.38
2018-01-16T03:31:08.103Z,6.32
2018-01-16T03:31:08.673Z,6.38
2018-01-16T03:31:09.272Z,6.36
2018-01-16T03:31:09.871Z,6.33
2018-01-16T03:31:10.473Z,6.44
2018-01-16T03:31:11.071Z,6.36
2018-01-16T03:31:11.672Z,6.32
2018-01-16T03:31:12.271Z,6.33
2018-01-16T03:32:05.754Z,6.36
2018-01-16T03:32:06.323Z,6.36
2018-01-16T03:32:06.923Z,6.30
2018-01-16T03:32:07.525Z,6.30
2018-01-16T03:32:08.125Z,6.36
2018-01-16T03:32:08.722Z,6.40
2018-01-16T03:32:09.322Z,6.41
2018-01-16T03:32:09.923Z,6.40
2018-01-16T03:33:03.406Z,6.29
2018-01-16T03:33:03.973Z,6.35
2018-01-16T03:33:04.574Z,6.30
2018-01-16T03:33:05.175Z,6.35
2018-01-16T03:33:05.777Z,6.35
2018-01-16T03:33:06.373Z,6.33
2018-01-16T03:33:06.974Z,6.36
2018-01-16T03:33:07.572Z,6.30
2018-01-16T03:34:01.057Z,6.33
2018-01-16T03:34:01.626Z,6.36
2018-01-16T03:34:02.226Z,6.32